sensor_id;sensor_type;location;lat;lon;timestamp;pressure;altitude;pressure_sealevel;temperature;humidity
68871;BME280;55906;52.278;6.808;2022-12-24T00:00:10;100292.97;;;10.61;94.99
68871;BME280;55906;52.278;6.808;2022-12-24T00:02:37;100302.63;;;10.62;94.66
68871;BME280;55906;52.278;6.808;2022-12-24T00:05:05;100335.06;;;10.61;93.95
68871;BME280;55906;52.278;6.808;2022-12-24T00:07:31;100308.75;;;10.61;93.79
68871;BME280;55906;52.278;6.808;2022-12-24T00:09:59;100311.47;;;10.67;93.13
68871;BME280;55906;52.278;6.808;2022-12-24T00:12:26;100316.72;;;10.66;93.37
68871;BME280;55906;52.278;6.808;2022-12-24T00:14:53;100324.63;;;10.67;92.85
68871;BME280;55906;52.278;6.808;2022-12-24T00:17:19;100334.31;;;10.68;92.80
68871;BME280;55906;52.278;6.808;2022-12-24T00:19:46;100315.06;;;10.72;91.78
68871;BME280;55906;52.278;6.808;2022-12-24T00:22:12;100336.06;;;10.69;91.89
68871;BME280;55906;52.278;6.808;2022-12-24T00:24:39;100320.34;;;10.72;91.02
68871;BME280;55906;52.278;6.808;2022-12-24T00:27:07;100347.56;;;10.74;90.68
68871;BME280;55906;52.278;6.808;2022-12-24T00:29:34;100345.72;;;10.70;90.12
68871;BME280;55906;52.278;6.808;2022-12-24T00:32:00;100324.72;;;10.72;89.65
68871;BME280;55906;52.278;6.808;2022-12-24T00:34:27;100345.78;;;10.73;89.59
68871;BME280;55906;52.278;6.808;2022-12-24T00:36:54;100365.09;;;10.75;89.10
68871;BME280;55906;52.278;6.808;2022-12-24T00:39:20;100354.59;;;10.75;88.99
68871;BME280;55906;52.278;6.808;2022-12-24T00:41:47;100351.16;;;10.79;89.02
68871;BME280;55906;52.278;6.808;2022-12-24T00:44:15;100356.34;;;10.75;88.61
68871;BME280;55906;52.278;6.808;2022-12-24T00:46:42;100361.66;;;10.78;88.70
68871;BME280;55906;52.278;6.808;2022-12-24T00:49:10;100360.75;;;10.77;88.50
68871;BME280;55906;52.278;6.808;2022-12-24T00:51:36;100361.66;;;10.79;88.09
68871;BME280;55906;52.278;6.808;2022-12-24T00:54:04;100363.38;;;10.76;88.17
68871;BME280;55906;52.278;6.808;2022-12-24T00:56:30;100373.06;;;10.80;87.06
68871;BME280;55906;52.278;6.808;2022-12-24T00:58:57;100369.56;;;10.79;86.99
68871;BME280;55906;52.278;6.808;2022-12-24T01:01:26;100378.34;;;10.80;87.01
68871;BME280;55906;52.278;6.808;2022-12-24T01:03:53;100379.19;;;10.79;86.74
68871;BME280;55906;52.278;6.808;2022-12-24T01:06:40;100387.97;;;10.79;87.04
68871;BME280;55906;52.278;6.808;2022-12-24T01:09:06;100385.34;;;10.79;86.91
68871;BME280;55906;52.278;6.808;2022-12-24T01:11:32;100395.00;;;10.79;87.00
68871;BME280;55906;52.278;6.808;2022-12-24T01:13:59;100389.66;;;10.74;87.23
68871;BME280;55906;52.278;6.808;2022-12-24T01:16:28;100396.75;;;10.80;86.70
68871;BME280;55906;52.278;6.808;2022-12-24T01:18:54;100411.59;;;10.75;87.19
68871;BME280;55906;52.278;6.808;2022-12-24T01:21:21;100416.88;;;10.76;87.25
68871;BME280;55906;52.278;6.808;2022-12-24T01:23:47;100409.81;;;10.74;86.70
68871;BME280;55906;52.278;6.808;2022-12-24T01:26:14;100419.53;;;10.78;87.21
68871;BME280;55906;52.278;6.808;2022-12-24T01:28:41;100429.13;;;10.76;87.09
68871;BME280;55906;52.278;6.808;2022-12-24T01:31:12;100427.47;;;10.81;86.76
68871;BME280;55906;52.278;6.808;2022-12-24T01:33:41;100436.22;;;10.80;86.33
68871;BME280;55906;52.278;6.808;2022-12-24T01:36:09;100461.63;;;10.78;85.93
68871;BME280;55906;52.278;6.808;2022-12-24T01:38:35;100457.34;;;10.84;86.05
68871;BME280;55906;52.278;6.808;2022-12-24T01:41:02;100457.34;;;10.84;85.85
68871;BME280;55906;52.278;6.808;2022-12-24T01:43:46;100460.78;;;10.80;85.85
68871;BME280;55906;52.278;6.808;2022-12-24T01:46:15;100460.81;;;10.82;85.55
68871;BME280;55906;52.278;6.808;2022-12-24T01:48:49;100460.00;;;10.84;84.88
68871;BME280;55906;52.278;6.808;2022-12-24T01:51:21;100457.34;;;10.84;85.03
68871;BME280;55906;52.278;6.808;2022-12-24T01:53:53;100472.31;;;10.87;85.01
68871;BME280;55906;52.278;6.808;2022-12-24T01:56:22;100483.69;;;10.86;84.52
68871;BME280;55906;52.278;6.808;2022-12-24T01:58:52;100478.53;;;10.90;84.52
68871;BME280;55906;52.278;6.808;2022-12-24T02:01:21;100485.47;;;10.87;85.33
68871;BME280;55906;52.278;6.808;2022-12-24T02:03:49;100496.84;;;10.86;84.71
68871;BME280;55906;52.278;6.808;2022-12-24T02:06:16;100502.03;;;10.81;84.95
68871;BME280;55906;52.278;6.808;2022-12-24T02:08:44;100499.53;;;10.87;85.13
68871;BME280;55906;52.278;6.808;2022-12-24T02:11:12;100505.63;;;10.85;85.13
68871;BME280;55906;52.278;6.808;2022-12-24T02:13:41;100505.63;;;10.86;84.60
68871;BME280;55906;52.278;6.808;2022-12-24T02:16:17;100507.38;;;10.86;84.66
68871;BME280;55906;52.278;6.808;2022-12-24T02:18:57;100509.19;;;10.88;84.54
68871;BME280;55906;52.278;6.808;2022-12-24T02:21:44;100522.28;;;10.85;84.16
68871;BME280;55906;52.278;6.808;2022-12-24T02:24:38;100512.69;;;10.87;84.58
68871;BME280;55906;52.278;6.808;2022-12-24T02:27:33;100526.69;;;10.86;84.40
68871;BME280;55906;52.278;6.808;2022-12-24T02:30:11;100525.84;;;10.87;84.26
68871;BME280;55906;52.278;6.808;2022-12-24T02:32:59;100534.59;;;10.86;84.02
68871;BME280;55906;52.278;6.808;2022-12-24T02:35:36;100537.22;;;10.86;84.41
68871;BME280;55906;52.278;6.808;2022-12-24T02:38:09;100545.13;;;10.88;83.90
68871;BME280;55906;52.278;6.808;2022-12-24T02:40:42;100553.84;;;10.84;84.10
68871;BME280;55906;52.278;6.808;2022-12-24T02:43:15;100548.63;;;10.87;84.10
68871;BME280;55906;52.278;6.808;2022-12-24T02:45:48;100561.75;;;10.85;84.16
68871;BME280;55906;52.278;6.808;2022-12-24T02:48:17;100560.78;;;10.80;83.75
68871;BME280;55906;52.278;6.808;2022-12-24T02:51:01;100559.94;;;10.81;84.00
68871;BME280;55906;52.278;6.808;2022-12-24T02:53:29;100560.84;;;10.83;83.53
68871;BME280;55906;52.278;6.808;2022-12-24T02:56:19;100588.84;;;10.80;83.69
68871;BME280;55906;52.278;6.808;2022-12-24T02:58:58;100584.47;;;10.80;83.45
68871;BME280;55906;52.278;6.808;2022-12-24T03:01:39;100575.69;;;10.80;82.83
68871;BME280;55906;52.278;6.808;2022-12-24T03:04:20;100586.19;;;10.78;83.03
68871;BME280;55906;52.278;6.808;2022-12-24T03:07:06;100585.38;;;10.82;83.06
68871;BME280;55906;52.278;6.808;2022-12-24T03:09:41;100598.47;;;10.79;83.25
68871;BME280;55906;52.278;6.808;2022-12-24T03:12:12;100606.25;;;10.73;83.19
68871;BME280;55906;52.278;6.808;2022-12-24T03:14:40;100602.69;;;10.71;83.45
68871;BME280;55906;52.278;6.808;2022-12-24T03:17:09;100604.44;;;10.71;83.46
68871;BME280;55906;52.278;6.808;2022-12-24T03:19:36;100607.84;;;10.67;83.10
68871;BME280;55906;52.278;6.808;2022-12-24T03:22:07;100618.50;;;10.73;83.00
68871;BME280;55906;52.278;6.808;2022-12-24T03:24:35;100615.84;;;10.71;83.24
68871;BME280;55906;52.278;6.808;2022-12-24T03:27:03;100618.47;;;10.71;82.93
68871;BME280;55906;52.278;6.808;2022-12-24T03:29:30;100638.59;;;10.69;83.44
68871;BME280;55906;52.278;6.808;2022-12-24T03:31:59;100630.72;;;10.69;82.86
68871;BME280;55906;52.278;6.808;2022-12-24T03:34:28;100624.59;;;10.70;83.41
68871;BME280;55906;52.278;6.808;2022-12-24T03:36:55;100629.75;;;10.66;83.12
68871;BME280;55906;52.278;6.808;2022-12-24T03:39:21;100636.75;;;10.65;83.30
68871;BME280;55906;52.278;6.808;2022-12-24T03:41:48;100642.00;;;10.64;83.07
68871;BME280;55906;52.278;6.808;2022-12-24T03:44:15;100630.59;;;10.63;82.79
68871;BME280;55906;52.278;6.808;2022-12-24T03:46:42;100633.22;;;10.63;83.07
68871;BME280;55906;52.278;6.808;2022-12-24T03:49:09;100631.50;;;10.65;83.41
68871;BME280;55906;52.278;6.808;2022-12-24T03:51:37;100638.50;;;10.65;82.80
68871;BME280;55906;52.278;6.808;2022-12-24T03:54:04;100637.56;;;10.61;82.56
68871;BME280;55906;52.278;6.808;2022-12-24T03:56:30;100640.25;;;10.64;83.08
68871;BME280;55906;52.278;6.808;2022-12-24T03:58:57;100633.28;;;10.66;83.10
68871;BME280;55906;52.278;6.808;2022-12-24T04:01:24;100638.53;;;10.66;83.00
68871;BME280;55906;52.278;6.808;2022-12-24T04:03:50;100641.06;;;10.62;83.25
68871;BME280;55906;52.278;6.808;2022-12-24T04:06:17;100655.06;;;10.61;83.43
68871;BME280;55906;52.278;6.808;2022-12-24T04:08:45;100645.44;;;10.61;83.13
68871;BME280;55906;52.278;6.808;2022-12-24T04:11:14;100641.06;;;10.62;83.35
68871;BME280;55906;52.278;6.808;2022-12-24T04:13:41;100642.78;;;10.60;83.61
68871;BME280;55906;52.278;6.808;2022-12-24T04:16:09;100654.19;;;10.60;83.51
68871;BME280;55906;52.278;6.808;2022-12-24T04:18:37;100647.97;;;10.56;83.54
68871;BME280;55906;52.278;6.808;2022-12-24T04:21:04;100646.25;;;10.58;83.16
68871;BME280;55906;52.278;6.808;2022-12-24T04:23:31;100651.50;;;10.57;83.53
68871;BME280;55906;52.278;6.808;2022-12-24T04:26:00;100654.13;;;10.57;83.93
68871;BME280;55906;52.278;6.808;2022-12-24T04:28:28;100663.69;;;10.53;83.49
68871;BME280;55906;52.278;6.808;2022-12-24T04:30:57;100668.03;;;10.51;83.27
68871;BME280;55906;52.278;6.808;2022-12-24T04:33:24;100675.06;;;10.52;83.69
68871;BME280;55906;52.278;6.808;2022-12-24T04:35:51;100677.72;;;10.54;83.40
68871;BME280;55906;52.278;6.808;2022-12-24T04:38:18;100675.88;;;10.50;83.50
68871;BME280;55906;52.278;6.808;2022-12-24T04:40:44;100670.63;;;10.50;83.73
68871;BME280;55906;52.278;6.808;2022-12-24T04:43:12;100680.28;;;10.51;83.46
68871;BME280;55906;52.278;6.808;2022-12-24T04:45:39;100681.97;;;10.47;83.44
68871;BME280;55906;52.278;6.808;2022-12-24T04:48:06;100689.03;;;10.50;83.51
68871;BME280;55906;52.278;6.808;2022-12-24T04:50:32;100686.41;;;10.50;83.70
68871;BME280;55906;52.278;6.808;2022-12-24T04:52:59;100686.28;;;10.45;83.77
68871;BME280;55906;52.278;6.808;2022-12-24T04:55:25;100696.00;;;10.48;83.96
68871;BME280;55906;52.278;6.808;2022-12-24T04:57:52;100688.06;;;10.46;83.83
68871;BME280;55906;52.278;6.808;2022-12-24T05:00:21;100703.78;;;10.43;84.14
68871;BME280;55906;52.278;6.808;2022-12-24T05:02:47;100704.41;;;10.35;84.60
68871;BME280;55906;52.278;6.808;2022-12-24T05:05:14;100709.75;;;10.38;84.13
68871;BME280;55906;52.278;6.808;2022-12-24T05:07:40;100701.81;;;10.36;84.55
68871;BME280;55906;52.278;6.808;2022-12-24T05:10:08;100709.69;;;10.35;84.49
68871;BME280;55906;52.278;6.808;2022-12-24T05:12:36;100713.19;;;10.35;84.58
68871;BME280;55906;52.278;6.808;2022-12-24T05:15:03;100706.25;;;10.39;84.80
68871;BME280;55906;52.278;6.808;2022-12-24T05:17:31;100709.91;;;10.42;84.44
68871;BME280;55906;52.278;6.808;2022-12-24T05:19:57;100713.41;;;10.43;84.65
68871;BME280;55906;52.278;6.808;2022-12-24T05:22:24;100705.41;;;10.40;84.65
68871;BME280;55906;52.278;6.808;2022-12-24T05:25:08;100701.97;;;10.41;84.77
68871;BME280;55906;52.278;6.808;2022-12-24T05:27:52;100698.44;;;10.40;85.45
68871;BME280;55906;52.278;6.808;2022-12-24T05:30:19;100716.75;;;10.37;85.50
68871;BME280;55906;52.278;6.808;2022-12-24T05:32:47;100718.56;;;10.40;85.90
68871;BME280;55906;52.278;6.808;2022-12-24T05:35:14;100732.75;;;10.45;85.77
68871;BME280;55906;52.278;6.808;2022-12-24T05:37:40;100731.91;;;10.46;85.98
68871;BME280;55906;52.278;6.808;2022-12-24T05:40:08;100728.34;;;10.44;85.87
68871;BME280;55906;52.278;6.808;2022-12-24T05:42:35;100732.63;;;10.40;86.45
68871;BME280;55906;52.278;6.808;2022-12-24T05:45:01;100723.06;;;10.44;86.07
68871;BME280;55906;52.278;6.808;2022-12-24T05:47:28;100733.72;;;10.48;85.89
68871;BME280;55906;52.278;6.808;2022-12-24T05:49:56;100735.47;;;10.49;85.96
68871;BME280;55906;52.278;6.808;2022-12-24T05:52:23;100738.06;;;10.48;86.22
68871;BME280;55906;52.278;6.808;2022-12-24T05:54:50;100736.44;;;10.53;86.44
68871;BME280;55906;52.278;6.808;2022-12-24T05:57:16;100724.16;;;10.52;86.41
68871;BME280;55906;52.278;6.808;2022-12-24T05:59:43;100733.84;;;10.54;86.40
68871;BME280;55906;52.278;6.808;2022-12-24T06:02:09;100731.41;;;10.62;85.95
68871;BME280;55906;52.278;6.808;2022-12-24T06:04:36;100722.63;;;10.62;86.03
68871;BME280;55906;52.278;6.808;2022-12-24T06:07:04;100731.47;;;10.65;86.01
68871;BME280;55906;52.278;6.808;2022-12-24T06:09:31;100738.44;;;10.63;86.11
68871;BME280;55906;52.278;6.808;2022-12-24T06:11:58;100742.88;;;10.66;86.23
68871;BME280;55906;52.278;6.808;2022-12-24T06:14:25;100749.91;;;10.67;86.36
68871;BME280;55906;52.278;6.808;2022-12-24T06:16:51;100742.00;;;10.65;86.17
68871;BME280;55906;52.278;6.808;2022-12-24T06:19:18;100749.91;;;10.67;86.39
68871;BME280;55906;52.278;6.808;2022-12-24T06:21:44;100743.81;;;10.68;86.32
68871;BME280;55906;52.278;6.808;2022-12-24T06:24:14;100745.63;;;10.70;86.02
68871;BME280;55906;52.278;6.808;2022-12-24T06:26:40;100735.09;;;10.70;86.41
68871;BME280;55906;52.278;6.808;2022-12-24T06:29:07;100737.63;;;10.66;86.50
68871;BME280;55906;52.278;6.808;2022-12-24T06:31:34;100742.94;;;10.69;86.47
68871;BME280;55906;52.278;6.808;2022-12-24T06:34:01;100736.72;;;10.65;86.83
68871;BME280;55906;52.278;6.808;2022-12-24T06:36:27;100750.66;;;10.61;86.97
68871;BME280;55906;52.278;6.808;2022-12-24T06:38:54;100750.66;;;10.61;87.15
68871;BME280;55906;52.278;6.808;2022-12-24T06:41:22;100762.06;;;10.62;87.12
68871;BME280;55906;52.278;6.808;2022-12-24T06:43:50;100766.50;;;10.63;86.72
68871;BME280;55906;52.278;6.808;2022-12-24T06:46:18;100765.66;;;10.65;86.99
68871;BME280;55906;52.278;6.808;2022-12-24T06:48:45;100772.72;;;10.66;86.83
68871;BME280;55906;52.278;6.808;2022-12-24T06:51:13;100782.44;;;10.70;87.14
68871;BME280;55906;52.278;6.808;2022-12-24T06:53:40;100784.19;;;10.70;86.75
68871;BME280;55906;52.278;6.808;2022-12-24T06:56:09;100793.03;;;10.73;86.56
68871;BME280;55906;52.278;6.808;2022-12-24T06:58:38;100799.31;;;10.78;86.61
68871;BME280;55906;52.278;6.808;2022-12-24T07:01:07;100791.34;;;10.75;86.78
68871;BME280;55906;52.278;6.808;2022-12-24T07:03:34;100789.63;;;10.77;86.38
68871;BME280;55906;52.278;6.808;2022-12-24T07:06:01;100790.53;;;10.78;86.88
68871;BME280;55906;52.278;6.808;2022-12-24T07:08:28;100784.31;;;10.74;87.94
68871;BME280;55906;52.278;6.808;2022-12-24T07:10:58;100790.22;;;10.66;88.31
68871;BME280;55906;52.278;6.808;2022-12-24T07:13:25;100798.06;;;10.63;88.70
68871;BME280;55906;52.278;6.808;2022-12-24T07:15:57;100790.91;;;10.57;89.52
68871;BME280;55906;52.278;6.808;2022-12-24T07:18:23;100797.06;;;10.57;89.83
68871;BME280;55906;52.278;6.808;2022-12-24T07:20:50;100803.13;;;10.55;90.05
68871;BME280;55906;52.278;6.808;2022-12-24T07:23:17;100805.78;;;10.56;89.90
68871;BME280;55906;52.278;6.808;2022-12-24T07:25:43;100800.50;;;10.55;89.73
68871;BME280;55906;52.278;6.808;2022-12-24T07:28:10;100804.84;;;10.53;89.81
68871;BME280;55906;52.278;6.808;2022-12-24T07:30:37;100811.72;;;10.48;90.56
68871;BME280;55906;52.278;6.808;2022-12-24T07:33:05;100821.44;;;10.50;90.32
68871;BME280;55906;52.278;6.808;2022-12-24T07:35:32;100822.31;;;10.51;91.09
68871;BME280;55906;52.278;6.808;2022-12-24T07:37:59;100816.97;;;10.48;90.95
68871;BME280;55906;52.278;6.808;2022-12-24T07:40:26;100823.97;;;10.47;91.16
68871;BME280;55906;52.278;6.808;2022-12-24T07:42:53;100817.91;;;10.50;91.25
68871;BME280;55906;52.278;6.808;2022-12-24T07:45:19;100816.97;;;10.48;91.27
68871;BME280;55906;52.278;6.808;2022-12-24T07:47:46;100824.09;;;10.52;91.45
68871;BME280;55906;52.278;6.808;2022-12-24T07:50:14;100828.44;;;10.50;91.36
68871;BME280;55906;52.278;6.808;2022-12-24T07:52:41;100831.78;;;10.44;91.50
68871;BME280;55906;52.278;6.808;2022-12-24T07:55:08;100832.69;;;10.45;91.56
68871;BME280;55906;52.278;6.808;2022-12-24T07:57:34;100836.25;;;10.47;91.58
68871;BME280;55906;52.278;6.808;2022-12-24T08:00:01;100839.78;;;10.49;91.74
68871;BME280;55906;52.278;6.808;2022-12-24T08:02:28;100849.53;;;10.53;91.63
68871;BME280;55906;52.278;6.808;2022-12-24T08:04:55;100855.66;;;10.52;91.98
68871;BME280;55906;52.278;6.808;2022-12-24T08:07:23;100849.44;;;10.48;92.92
68871;BME280;55906;52.278;6.808;2022-12-24T08:09:51;100853.97;;;10.54;92.54
68871;BME280;55906;52.278;6.808;2022-12-24T08:12:18;100859.22;;;10.54;92.73
68871;BME280;55906;52.278;6.808;2022-12-24T08:14:45;100866.25;;;10.55;92.75
68871;BME280;55906;52.278;6.808;2022-12-24T08:17:11;100870.59;;;10.53;93.10
68871;BME280;55906;52.278;6.808;2022-12-24T08:19:38;100882.00;;;10.53;93.30
68871;BME280;55906;52.278;6.808;2022-12-24T08:22:05;100887.25;;;10.53;93.55
68871;BME280;55906;52.278;6.808;2022-12-24T08:24:33;100882.94;;;10.55;93.50
68871;BME280;55906;52.278;6.808;2022-12-24T08:26:59;100894.34;;;10.56;93.54
68871;BME280;55906;52.278;6.808;2022-12-24T08:29:26;100899.69;;;10.59;93.58
68871;BME280;55906;52.278;6.808;2022-12-24T08:31:53;100900.50;;;10.56;93.91
68871;BME280;55906;52.278;6.808;2022-12-24T08:34:19;100906.69;;;10.58;93.57
68871;BME280;55906;52.278;6.808;2022-12-24T08:36:46;100920.72;;;10.59;93.93
68871;BME280;55906;52.278;6.808;2022-12-24T08:39:13;100911.13;;;10.61;93.74
68871;BME280;55906;52.278;6.808;2022-12-24T08:41:41;100919.03;;;10.61;93.41
68871;BME280;55906;52.278;6.808;2022-12-24T08:44:10;100927.72;;;10.58;93.51
68871;BME280;55906;52.278;6.808;2022-12-24T08:46:37;100924.38;;;10.64;93.29
68871;BME280;55906;52.278;6.808;2022-12-24T08:49:03;100915.59;;;10.64;93.19
68871;BME280;55906;52.278;6.808;2022-12-24T08:51:30;100918.34;;;10.68;93.54
68871;BME280;55906;52.278;6.808;2022-12-24T08:53:57;100931.50;;;10.68;93.32
68871;BME280;55906;52.278;6.808;2022-12-24T08:56:23;100925.28;;;10.66;93.64
68871;BME280;55906;52.278;6.808;2022-12-24T08:58:51;100929.78;;;10.70;93.05
68871;BME280;55906;52.278;6.808;2022-12-24T09:01:19;100931.53;;;10.70;93.10
68871;BME280;55906;52.278;6.808;2022-12-24T09:03:46;100941.16;;;10.69;92.60
68871;BME280;55906;52.278;6.808;2022-12-24T09:06:13;100951.66;;;10.68;93.01
68871;BME280;55906;52.278;6.808;2022-12-24T09:08:40;100952.53;;;10.68;92.34
68871;BME280;55906;52.278;6.808;2022-12-24T09:11:08;100956.09;;;10.70;91.85
68871;BME280;55906;52.278;6.808;2022-12-24T09:13:36;100955.28;;;10.73;92.05
68871;BME280;55906;52.278;6.808;2022-12-24T09:16:05;100963.16;;;10.71;92.36
68871;BME280;55906;52.278;6.808;2022-12-24T09:18:32;100965.00;;;10.75;92.13
68871;BME280;55906;52.278;6.808;2022-12-24T09:20:59;100967.56;;;10.72;91.77
68871;BME280;55906;52.278;6.808;2022-12-24T09:23:26;100969.41;;;10.76;91.83
68871;BME280;55906;52.278;6.808;2022-12-24T09:25:54;100984.53;;;10.83;91.44
68871;BME280;55906;52.278;6.808;2022-12-24T09:28:21;100980.91;;;10.80;91.55
68871;BME280;55906;52.278;6.808;2022-12-24T09:30:56;100987.13;;;10.82;90.92
68871;BME280;55906;52.278;6.808;2022-12-24T09:33:24;100987.22;;;10.86;91.41
68871;BME280;55906;52.278;6.808;2022-12-24T09:35:51;100994.28;;;10.87;91.16
68871;BME280;55906;52.278;6.808;2022-12-24T09:38:18;100996.91;;;10.87;91.07
68871;BME280;55906;52.278;6.808;2022-12-24T09:40:46;100991.81;;;10.94;90.93
68871;BME280;55906;52.278;6.808;2022-12-24T09:43:14;100999.78;;;10.97;90.71
68871;BME280;55906;52.278;6.808;2022-12-24T09:45:47;101004.34;;;11.04;90.42
68871;BME280;55906;52.278;6.808;2022-12-24T09:48:17;101002.56;;;11.03;90.42
68871;BME280;55906;52.278;6.808;2022-12-24T09:50:50;101010.50;;;11.04;89.90
68871;BME280;55906;52.278;6.808;2022-12-24T09:53:21;101022.00;;;11.08;89.46
68871;BME280;55906;52.278;6.808;2022-12-24T09:55:52;101020.19;;;11.05;89.65
68871;BME280;55906;52.278;6.808;2022-12-24T09:58:25;101015.94;;;11.10;88.66
68871;BME280;55906;52.278;6.808;2022-12-24T10:00:53;101017.72;;;11.11;89.44
68871;BME280;55906;52.278;6.808;2022-12-24T10:03:21;101024.84;;;11.15;88.55
68871;BME280;55906;52.278;6.808;2022-12-24T10:06:04;101012.16;;;11.34;87.69
68871;BME280;55906;52.278;6.808;2022-12-24T10:08:40;101025.69;;;11.49;86.62
68871;BME280;55906;52.278;6.808;2022-12-24T10:11:15;101028.44;;;11.53;86.84
68871;BME280;55906;52.278;6.808;2022-12-24T10:13:58;101026.03;;;11.63;85.49
68871;BME280;55906;52.278;6.808;2022-12-24T10:16:40;101031.38;;;11.66;85.51
68871;BME280;55906;52.278;6.808;2022-12-24T10:19:16;101027.88;;;11.67;84.85
68871;BME280;55906;52.278;6.808;2022-12-24T10:21:55;101044.72;;;11.72;84.35
68871;BME280;55906;52.278;6.808;2022-12-24T10:24:25;101043.94;;;11.76;84.36
68871;BME280;55906;52.278;6.808;2022-12-24T10:26:58;101050.25;;;11.81;84.37
68871;BME280;55906;52.278;6.808;2022-12-24T10:29:28;101043.28;;;11.83;83.96
68871;BME280;55906;52.278;6.808;2022-12-24T10:32:00;101039.03;;;11.90;83.51
68871;BME280;55906;52.278;6.808;2022-12-24T10:34:30;101057.41;;;11.87;83.23
68871;BME280;55906;52.278;6.808;2022-12-24T10:37:01;101039.84;;;11.87;83.19
68871;BME280;55906;52.278;6.808;2022-12-24T10:39:29;101045.72;;;11.77;83.06
68871;BME280;55906;52.278;6.808;2022-12-24T10:41:57;101050.25;;;11.81;82.91
68871;BME280;55906;52.278;6.808;2022-12-24T10:44:27;101053.88;;;11.86;82.91
68871;BME280;55906;52.278;6.808;2022-12-24T10:46:54;101043.38;;;11.88;83.22
68871;BME280;55906;52.278;6.808;2022-12-24T10:49:29;101050.31;;;11.84;82.43
68871;BME280;55906;52.278;6.808;2022-12-24T10:52:03;101056.69;;;11.94;82.59
68871;BME280;55906;52.278;6.808;2022-12-24T10:54:31;101054.28;;;12.03;81.63
68871;BME280;55906;52.278;6.808;2022-12-24T10:57:04;101062.19;;;12.03;81.06
68871;BME280;55906;52.278;6.808;2022-12-24T10:59:38;101051.75;;;12.07;81.27
68871;BME280;55906;52.278;6.808;2022-12-24T11:02:25;101050.25;;;12.20;80.67
68871;BME280;55906;52.278;6.808;2022-12-24T11:04:52;101055.56;;;12.22;80.25
68871;BME280;55906;52.278;6.808;2022-12-24T11:07:22;101065.34;;;12.26;80.36
68871;BME280;55906;52.278;6.808;2022-12-24T11:09:57;101056.69;;;12.33;79.98
68871;BME280;55906;52.278;6.808;2022-12-24T11:12:26;101058.94;;;12.55;78.90
68871;BME280;55906;52.278;6.808;2022-12-24T11:15:01;101059.75;;;12.96;77.98
68871;BME280;55906;52.278;6.808;2022-12-24T11:17:29;101060.31;;;13.22;77.41
68871;BME280;55906;52.278;6.808;2022-12-24T11:19:56;101047.28;;;13.87;75.24
68871;BME280;55906;52.278;6.808;2022-12-24T11:22:26;101043.53;;;14.32;73.35
68871;BME280;55906;52.278;6.808;2022-12-24T11:25:00;101047.66;;;14.77;71.71
68871;BME280;55906;52.278;6.808;2022-12-24T11:27:38;101037.78;;;15.50;69.22
68871;BME280;55906;52.278;6.808;2022-12-24T11:30:25;101031.63;;;15.52;66.18
68871;BME280;55906;52.278;6.808;2022-12-24T11:33:19;101049.00;;;15.18;67.15
68871;BME280;55906;52.278;6.808;2022-12-24T11:35:50;101053.38;;;15.15;67.92
68871;BME280;55906;52.278;6.808;2022-12-24T11:38:21;101051.38;;;14.94;68.38
68871;BME280;55906;52.278;6.808;2022-12-24T11:40:55;101057.50;;;14.87;68.27
68871;BME280;55906;52.278;6.808;2022-12-24T11:43:23;101057.78;;;14.41;68.54
68871;BME280;55906;52.278;6.808;2022-12-24T11:45:51;101061.81;;;14.15;68.77
68871;BME280;55906;52.278;6.808;2022-12-24T11:48:27;101065.06;;;13.97;68.77
68871;BME280;55906;52.278;6.808;2022-12-24T11:50:56;101049.72;;;13.73;69.38
68871;BME280;55906;52.278;6.808;2022-12-24T11:53:27;101063.84;;;13.75;69.43
68871;BME280;55906;52.278;6.808;2022-12-24T11:55:58;101061.13;;;13.71;68.67
68871;BME280;55906;52.278;6.808;2022-12-24T11:58:30;101067.66;;;13.94;68.28
68871;BME280;55906;52.278;6.808;2022-12-24T12:01:08;101063.97;;;13.83;68.20
68871;BME280;55906;52.278;6.808;2022-12-24T12:03:38;101063.28;;;13.96;67.70
68871;BME280;55906;52.278;6.808;2022-12-24T12:06:17;101070.81;;;13.70;68.37
68871;BME280;55906;52.278;6.808;2022-12-24T12:08:49;101076.72;;;13.54;69.09
68871;BME280;55906;52.278;6.808;2022-12-24T12:11:20;101075.84;;;13.55;69.57
68871;BME280;55906;52.278;6.808;2022-12-24T12:13:47;101079.00;;;13.33;69.81
68871;BME280;55906;52.278;6.808;2022-12-24T12:16:18;101084.06;;;13.22;70.21
68871;BME280;55906;52.278;6.808;2022-12-24T12:18:51;101082.25;;;13.18;70.57
68871;BME280;55906;52.278;6.808;2022-12-24T12:21:23;101078.44;;;13.05;70.54
68871;BME280;55906;52.278;6.808;2022-12-24T12:23:54;101079.91;;;12.91;71.08
68871;BME280;55906;52.278;6.808;2022-12-24T12:26:25;101077.19;;;12.88;71.50
68871;BME280;55906;52.278;6.808;2022-12-24T12:28:55;101077.88;;;12.78;71.21
68871;BME280;55906;52.278;6.808;2022-12-24T12:31:25;101090.81;;;12.66;71.49
68871;BME280;55906;52.278;6.808;2022-12-24T12:33:58;101092.56;;;12.65;71.37
68871;BME280;55906;52.278;6.808;2022-12-24T12:36:29;101110.09;;;12.62;71.81
68871;BME280;55906;52.278;6.808;2022-12-24T12:38:59;101095.88;;;12.55;71.77
68871;BME280;55906;52.278;6.808;2022-12-24T12:41:42;101096.81;;;12.57;71.91
68871;BME280;55906;52.278;6.808;2022-12-24T12:47:30;101133.63;;;12.51;72.05
68871;BME280;55906;52.278;6.808;2022-12-24T12:50:08;101111.72;;;12.55;71.93
68871;BME280;55906;52.278;6.808;2022-12-24T12:52:58;101116.09;;;12.55;71.38
68871;BME280;55906;52.278;6.808;2022-12-24T12:55:36;101120.41;;;12.51;72.06
68871;BME280;55906;52.278;6.808;2022-12-24T12:58:11;101121.25;;;12.48;72.22
68871;BME280;55906;52.278;6.808;2022-12-24T13:00:43;101129.19;;;12.50;72.10
68871;BME280;55906;52.278;6.808;2022-12-24T13:06:25;101123.38;;;12.26;72.51
68871;BME280;55906;52.278;6.808;2022-12-24T13:12:07;101121.31;;;12.12;72.51